Time;durP1;ratioP1;P1;durP2;ratioP2;P2;SDS_P1;SDS_P2;PMS_P1;PMS_P2;Temp;Humidity;BMP_temperature;BMP_pressure;BME280_temperature;BME280_humidity;BME280_pressure;Samples;Min_cycle;Max_cycle;Signal;HPM_P1;HPM_P2
2021/04/04 00:01:07;;;;;;;10.57;3.97;;;6.70;56.30;;;5.50;48.77;99028.88;4994237;28;20418;-77
2021/04/04 00:03:34;;;;;;;11.30;4.22;;;6.70;56.40;;;5.41;49.00;99047.31;4995481;28;20394;-78
2021/04/04 00:06:00;;;;;;;10.97;4.33;;;6.60;56.90;;;5.15;50.15;99039.03;4996063;28;20449;-78
2021/04/04 00:08:26;;;;;;;16.15;5.25;;;6.40;57.60;;;5.26;49.88;99033.34;4996488;28;20438;-78
2021/04/04 00:10:53;;;;;;;11.73;4.75;;;6.40;57.90;;;5.26;49.90;99033.34;4995321;28;20834;-77
2021/04/04 00:13:19;;;;;;;9.90;4.97;;;6.40;57.90;;;5.33;49.51;99034.28;4994049;28;20498;-77
2021/04/04 00:15:45;;;;;;;8.23;4.68;;;6.40;57.60;;;5.23;50.00;99040.78;4998874;28;20411;-76
2021/04/04 00:18:12;;;;;;;9.70;4.55;;;6.40;57.90;;;5.18;49.92;99033.44;4999616;28;20410;-77
2021/04/04 00:20:39;;;;;;;14.23;4.73;;;6.40;58.00;;;5.25;49.80;99030.91;4998522;28;20426;-78
2021/04/04 00:23:05;;;;;;;12.90;4.47;;;6.40;58.00;;;5.37;49.65;99037.38;4994527;28;20676;-78
2021/04/04 00:25:31;;;;;;;11.38;4.45;;;6.40;57.60;;;5.36;49.43;99031.28;4994474;28;20441;-77
2021/04/04 00:27:57;;;;;;;14.00;4.25;;;6.50;57.50;;;5.44;49.16;99027.78;4994947;28;20410;-78
2021/04/04 00:30:25;;;;;;;10.57;4.47;;;6.50;57.30;;;5.55;48.87;99029.19;4994968;28;20689;-78
2021/04/04 00:32:51;;;;;;;10.18;4.38;;;6.60;57.10;;;5.46;49.14;99033.69;4995245;28;20423;-77
2021/04/04 00:35:21;;;;;;;14.13;4.30;;;6.70;57.10;;;5.46;49.25;99036.31;4995128;28;20399;-77
2021/04/04 00:37:49;;;;;;;10.65;4.43;;;6.50;57.20;;;5.48;49.06;99029.06;4995436;28;20429;-77
2021/04/04 00:40:18;;;;;;;10.20;4.23;;;6.60;57.20;;;5.53;48.52;99025.91;4994486;28;20406;-77
2021/04/04 00:42:44;;;;;;;12.38;4.07;;;6.60;56.70;;;5.50;48.76;99027.06;4994146;28;20519;-77
2021/04/04 00:45:14;;;;;;;8.80;4.05;;;6.60;56.80;;;5.48;48.95;99029.06;4995089;28;20403;-77
2021/04/04 00:47:41;;;;;;;12.85;4.20;;;6.60;56.90;;;5.38;49.24;99036.38;4994427;28;20500;-79
2021/04/04 00:50:09;;;;;;;9.45;3.90;;;6.50;57.10;;;5.38;49.18;99039.81;4994742;28;20701;-77
2021/04/04 00:52:37;;;;;;;10.48;4.30;;;6.50;57.20;;;5.34;49.16;99030.66;4994724;28;20438;-78
2021/04/04 00:55:05;;;;;;;16.15;4.40;;;6.50;57.30;;;5.32;49.11;99031.84;4994333;28;20502;-77
2021/04/04 00:57:31;;;;;;;11.95;4.40;;;6.40;57.90;;;5.39;48.97;99033.59;4994870;28;20429;-78
2021/04/04 00:59:57;;;;;;;9.85;4.15;;;6.50;57.10;;;5.41;48.79;99031.56;4994380;28;20684;-78
2021/04/04 01:02:24;;;;;;;9.90;4.63;;;6.50;56.80;;;5.34;49.16;99024.56;4994255;28;20952;-77
2021/04/04 01:04:51;;;;;;;8.73;3.78;;;6.50;57.10;;;5.30;49.17;99023.31;4994854;28;20449;-76
2021/04/04 01:07:17;;;;;;;13.52;4.28;;;6.40;57.30;;;5.28;49.31;99026.09;4994440;28;20480;-77
2021/04/04 01:09:45;;;;;;;14.00;4.80;;;6.40;57.40;;;5.02;49.87;99021.25;4993949;28;20680;-76
2021/04/04 01:12:21;;;;;;;12.68;4.30;;;6.30;57.60;;;4.89;50.46;99025.41;4994267;28;20785;-78
2021/04/04 01:14:57;;;;;;;15.93;4.47;;;6.10;58.30;;;4.79;50.92;99020.41;4993960;28;20415;-78
2021/04/04 01:17:25;;;;;;;9.27;4.07;;;6.00;58.90;;;4.82;50.79;99014.00;4994024;28;20429;-78
2021/04/04 01:20:10;;;;;;;13.20;4.07;;;6.00;58.90;;;4.86;50.58;99020.53;4994474;28;20678;-78
2021/04/04 01:23:15;;;;;;;10.27;4.20;;;6.00;59.40;;;4.76;51.11;99020.75;4994192;28;20415;-77
2021/04/04 01:25:53;;;;;;;10.48;4.07;;;5.90;58.80;;;4.56;51.51;99022.19;4993788;28;20423;-76
2021/04/04 01:28:26;;;;;;;9.48;4.03;;;5.80;59.30;;;4.60;51.48;99029.53;4994195;28;20653;-78
2021/04/04 01:30:53;;;;;;;11.82;4.00;;;5.80;59.60;;;4.65;51.32;99024.59;4993198;28;20502;-77
2021/04/04 01:33:21;;;;;;;10.27;4.00;;;5.80;59.30;;;4.57;51.22;99024.66;4993936;28;20507;-77
2021/04/04 01:35:50;;;;;;;10.95;3.80;;;5.80;59.30;;;4.50;51.23;99028.97;4993939;28;20422;-75
2021/04/04 01:38:22;;;;;;;8.95;4.47;;;5.70;59.20;;;4.57;51.47;99022.03;4994060;28;20430;-76
2021/04/04 01:40:55;;;;;;;10.65;3.92;;;5.70;59.40;;;4.61;51.10;99022.47;4993732;28;20415;-77
2021/04/04 01:43:23;;;;;;;9.23;4.10;;;5.80;59.00;;;4.53;51.09;99023.34;4993721;28;20650;-77
2021/04/04 01:45:51;;;;;;;11.23;4.22;;;5.70;59.20;;;4.49;51.16;99014.22;4976394;28;20824;-77
2021/04/04 01:48:18;;;;;;;12.85;4.30;;;5.70;59.40;;;4.45;51.97;99025.19;4994508;28;20403;-77
2021/04/04 01:50:45;;;;;;;14.60;4.73;;;5.70;60.00;;;4.32;52.45;99022.31;4992786;28;20813;-77
2021/04/04 01:53:12;;;;;;;11.43;4.28;;;5.60;60.30;;;4.33;51.96;99021.31;4994047;28;20410;-77
2021/04/04 01:55:40;;;;;;;12.00;4.13;;;5.50;60.20;;;4.19;51.97;99026.31;4994339;28;20413;-77
2021/04/04 01:58:08;;;;;;;9.65;3.90;;;5.40;60.10;;;4.34;51.71;99013.31;4994387;28;20414;-77
2021/04/04 02:00:37;;;;;;;9.93;4.10;;;5.50;59.90;;;4.21;51.78;99024.31;4993893;28;20655;-77
2021/04/04 02:03:05;;;;;;;12.88;4.20;;;5.50;59.80;;;4.24;51.95;99023.97;4994053;28;20418;-77
2021/04/04 02:05:32;;;;;;;9.80;4.25;;;5.50;60.00;;;4.33;51.88;99013.47;4994027;28;20427;-77
2021/04/04 02:08:00;;;;;;;10.18;4.05;;;5.50;60.00;;;4.38;51.61;99008.50;4994758;28;20454;-76
2021/04/04 02:10:29;;;;;;;10.18;4.70;;;5.50;59.90;;;4.52;51.06;99005.16;4993641;28;20479;-76
2021/04/04 02:13:00;;;;;;;14.07;4.60;;;5.60;59.60;;;4.36;51.50;99005.28;4993782;28;20415;-76
2021/04/04 02:15:30;;;;;;;11.93;5.13;;;5.60;59.70;;;4.42;51.84;99008.03;4993503;28;20406;-76
2021/04/04 02:17:59;;;;;;;11.93;4.17;;;5.50;59.80;;;4.54;51.26;99008.44;4994850;28;20448;-77
2021/04/04 02:20:30;;;;;;;10.63;3.72;;;5.60;59.60;;;4.38;51.51;99000.66;4994724;28;20410;-77
2021/04/04 02:22:59;;;;;;;10.50;4.20;;;5.60;59.60;;;4.18;52.18;99002.88;4997128;28;20799;-77
2021/04/04 02:25:26;;;;;;;13.00;4.50;;;5.40;59.90;;;4.17;52.21;98996.81;4993777;28;20426;-77
2021/04/04 02:27:53;;;;;;;11.77;4.10;;;5.40;60.50;;;4.18;52.25;98995.03;4993584;28;20506;-77
2021/04/04 02:30:20;;;;;;;13.48;4.05;;;5.40;60.60;;;4.15;52.39;99001.41;4974427;28;20452;-77
2021/04/04 02:32:53;;;;;;;13.55;4.22;;;5.30;60.80;;;4.22;52.47;98994.50;4993112;28;20422;-77
2021/04/04 02:35:28;;;;;;;10.57;4.65;;;5.40;60.80;;;4.06;52.72;99002.44;4992689;28;20840;-77
2021/04/04 02:37:57;;;;;;;8.85;4.18;;;5.30;61.10;;;4.06;52.95;98999.00;4991644;28;20521;-77
2021/04/04 02:40:25;;;;;;;12.52;4.18;;;5.30;61.40;;;4.01;52.95;99002.13;4991525;28;20781;-77
2021/04/04 02:42:54;;;;;;;12.82;4.90;;;5.20;61.40;;;3.94;53.10;99001.16;4974026;28;20769;-77
2021/04/04 02:45:25;;;;;;;15.90;4.43;;;5.20;61.70;;;4.01;53.02;98998.69;4991343;28;20739;-77
2021/04/04 02:48:01;;;;;;;10.50;3.95;;;5.20;61.80;;;4.17;52.85;99002.06;4992296;28;20658;-77
2021/04/04 02:50:30;;;;;;;12.00;3.92;;;5.30;61.50;;;4.25;52.67;98998.59;4991154;28;20422;-77
2021/04/04 02:53:00;;;;;;;15.63;4.30;;;5.40;62.00;;;4.02;52.91;98998.53;4991214;28;20689;-77
2021/04/04 02:55:29;;;;;;;10.63;4.18;;;5.30;61.20;;;4.06;52.81;98994.56;4991564;28;20403;-77
2021/04/04 02:57:57;;;;;;;10.00;4.47;;;5.20;61.40;;;4.03;53.07;99005.41;4992179;28;20716;-77
2021/04/04 03:00:24;;;;;;;11.17;4.03;;;5.30;61.60;;;4.00;53.25;98999.66;4992586;28;20582;-77
2021/04/04 03:02:53;;;;;;;13.77;4.72;;;5.20;61.80;;;4.08;53.02;98997.03;4976897;28;20429;-77
2021/04/04 03:05:25;;;;;;;10.55;3.75;;;5.20;61.60;;;4.03;53.08;98992.31;4996191;28;20517;-77
2021/04/04 03:07:53;;;;;;;10.85;4.20;;;5.30;61.70;;;4.10;52.97;98998.50;4996281;28;20414;-77
2021/04/04 03:10:19;;;;;;;9.60;3.75;;;5.20;61.60;;;4.16;53.01;98999.59;4996332;28;20414;-77
2021/04/04 03:12:49;;;;;;;11.57;3.92;;;5.30;61.40;;;3.96;53.31;98991.34;4996295;28;20422;-77
2021/04/04 03:15:17;;;;;;;10.38;4.25;;;5.30;61.80;;;4.03;53.48;98994.91;4979068;28;20487;-77
2021/04/04 03:17:45;;;;;;;11.52;4.15;;;5.20;61.90;;;3.90;53.66;98994.66;4978670;28;20867;-77
2021/04/04 03:20:14;;;;;;;14.93;4.47;;;5.20;62.00;;;3.62;54.54;98999.44;4996069;28;20498;-77
2021/04/04 03:22:43;;;;;;;11.15;4.60;;;4.90;63.20;;;3.63;54.51;98995.03;4996183;28;20450;-77
2021/04/04 03:25:12;;;;;;;12.18;4.05;;;4.90;63.60;;;3.68;54.85;98993.56;4996399;28;20780;-77
2021/04/04 03:27:44;;;;;;;12.80;3.95;;;4.80;63.80;;;3.55;54.93;99000.28;4997303;28;20422;-76
2021/04/04 03:30:35;;;;;;;9.45;4.25;;;4.80;63.70;;;3.63;54.73;99002.88;4981340;28;20414;-77
2021/04/04 03:33:02;;;;;;;12.55;4.80;;;4.80;63.80;;;3.66;54.76;99011.25;4997892;28;20865;-77
2021/04/04 03:35:30;;;;;;;12.18;4.10;;;4.80;63.60;;;3.79;54.24;99000.22;4997783;28;20442;-77
2021/04/04 03:37:58;;;;;;;10.25;4.70;;;4.90;63.30;;;3.91;53.98;98998.09;4996464;28;20433;-77
2021/04/04 03:40:25;;;;;;;11.38;4.30;;;5.00;63.00;;;3.94;53.80;98997.72;4997583;28;20514;-77
2021/04/04 03:42:53;;;;;;;14.77;4.32;;;5.10;62.70;;;3.72;54.42;98996.66;4996617;28;20414;-76
2021/04/04 03:45:20;;;;;;;10.60;4.40;;;5.00;62.90;;;3.52;55.24;99000.63;4995701;28;20417;-77
2021/04/04 03:47:48;;;;;;;11.70;4.43;;;4.80;64.20;;;3.50;55.18;98991.16;4995342;28;20525;-77
2021/04/04 03:50:17;;;;;;;10.75;4.00;;;4.70;64.20;;;3.48;55.14;99000.97;4994856;28;20410;-77
2021/04/04 03:52:45;;;;;;;12.27;4.40;;;4.70;64.50;;;3.51;55.27;98994.59;4994983;28;20450;-77
2021/04/04 03:55:18;;;;;;;15.13;4.50;;;4.70;64.20;;;3.64;55.20;99000.09;4977650;28;20520;-77
2021/04/04 03:57:47;;;;;;;10.70;4.60;;;4.80;64.30;;;3.73;54.85;98998.28;4994974;28;20809;-77
2021/04/04 04:00:16;;;;;;;11.20;4.18;;;4.90;64.00;;;3.63;55.07;98995.03;4995053;28;20450;-77
2021/04/04 04:02:44;;;;;;;13.88;5.72;;;4.90;64.00;;;3.48;55.39;99002.75;4977779;28;20427;-77
2021/04/04 04:05:12;;;;;;;12.85;3.95;;;4.80;64.20;;;3.49;55.23;99001.78;4995315;28;20407;-77
2021/04/04 04:07:40;;;;;;;12.60;4.05;;;4.70;64.30;;;3.53;55.00;99005.72;4994854;28;20413;-77
2021/04/04 04:10:07;;;;;;;10.02;4.43;;;4.70;64.30;;;3.64;54.93;98994.88;4995082;28;21059;-77
2021/04/04 04:12:34;;;;;;;10.90;4.53;;;4.80;64.00;;;3.70;54.65;99002.06;4994656;28;20468;-77
2021/04/04 04:15:03;;;;;;;12.75;4.32;;;4.90;63.80;;;3.72;54.73;98997.47;4994052;28;20441;-77
2021/04/04 04:17:31;;;;;;;13.98;4.93;;;4.90;63.70;;;3.75;54.69;98998.94;4995356;28;20460;-77
2021/04/04 04:19:58;;;;;;;12.63;4.63;;;4.90;63.90;;;3.67;55.10;99004.22;4995251;28;20442;-77
2021/04/04 04:22:25;;;;;;;14.13;4.60;;;4.90;63.80;;;3.71;55.20;98998.44;4977863;28;20438;-77
2021/04/04 04:24:52;;;;;;;12.63;4.10;;;4.90;64.20;;;3.61;55.58;98991.78;4995440;28;20410;-77
2021/04/04 04:27:19;;;;;;;14.73;5.03;;;4.80;64.70;;;3.61;55.75;98994.41;4995191;28;20437;-77
2021/04/04 04:29:47;;;;;;;11.57;4.10;;;4.80;64.80;;;3.50;55.79;98991.16;4995458;28;20407;-78
2021/04/04 04:32:17;;;;;;;14.43;4.50;;;4.70;64.90;;;3.45;55.82;98992.63;4995645;28;20419;-77
2021/04/04 04:34:45;;;;;;;10.38;4.32;;;4.70;65.10;;;3.44;55.93;98983.97;4995128;28;20407;-78
2021/04/04 04:37:13;;;;;;;11.93;4.90;;;4.70;65.30;;;3.37;56.28;98984.78;4995760;28;20698;-78
2021/04/04 04:39:41;;;;;;;11.93;4.03;;;4.60;65.40;;;3.38;55.98;98981.97;4994978;28;20415;-78
2021/04/04 04:42:11;;;;;;;10.98;4.65;;;4.60;65.50;;;3.50;56.06;98991.16;4978149;28;20445;-78
2021/04/04 04:44:39;;;;;;;10.45;4.60;;;4.70;65.30;;;3.60;55.75;98990.16;4994998;28;20521;-78
2021/04/04 04:47:07;;;;;;;14.85;4.85;;;4.80;65.10;;;3.64;55.66;98984.41;4995116;28;20827;-78
2021/04/04 04:49:36;;;;;;;12.40;4.37;;;4.80;65.10;;;3.65;55.95;98988.66;4995111;28;20514;-78
2021/04/04 04:52:03;;;;;;;12.77;5.10;;;4.80;65.50;;;3.68;56.50;98996.19;4995030;28;20419;-78
2021/04/04 04:54:29;;;;;;;17.13;4.82;;;4.80;66.00;;;3.72;56.42;98997.47;4994948;28;20411;-78
2021/04/04 04:56:56;;;;;;;12.65;4.88;;;4.80;66.00;;;3.76;56.54;98996.13;4994958;28;20512;-78
2021/04/04 04:59:24;;;;;;;10.63;4.63;;;4.90;66.20;;;3.68;56.68;98995.38;4977924;28;20442;-78
2021/04/04 05:01:52;;;;;;;14.68;5.00;;;4.90;65.90;;;3.83;56.42;98999.72;4978099;28;20431;-78
2021/04/04 05:04:19;;;;;;;17.08;4.97;;;4.90;66.10;;;3.86;56.18;98991.53;4995518;28;20419;-78
2021/04/04 05:06:49;;;;;;;8.65;4.57;;;5.00;65.90;;;3.79;56.66;98997.63;4995462;28;20441;-78
2021/04/04 05:09:17;;;;;;;11.13;4.53;;;5.00;65.90;;;3.72;56.53;98992.22;4996219;28;20475;-78
2021/04/04 05:11:46;;;;;;;10.38;4.57;;;4.90;66.00;;;3.62;57.18;98996.00;4994976;28;20477;-78
2021/04/04 05:14:13;;;;;;;15.88;4.80;;;4.80;66.40;;;3.42;57.33;98990.34;4999250;28;20997;-78
2021/04/04 05:16:40;;;;;;;12.48;5.40;;;4.70;66.80;;;3.34;57.69;98999.00;5001879;28;20414;-78
2021/04/04 05:19:08;;;;;;;11.02;4.50;;;4.60;67.40;;;3.30;56.59;98996.91;5001676;28;20780;-78
2021/04/04 05:21:36;;;;;;;9.67;4.27;;;4.50;65.90;;;3.34;56.24;98998.19;4995930;28;20431;-78
2021/04/04 05:24:06;;;;;;;12.70;5.30;;;4.50;65.70;;;3.40;55.96;98995.72;4995976;28;20788;-78
2021/04/04 05:26:35;;;;;;;8.35;4.22;;;4.60;65.50;;;3.45;55.71;98996.06;4976574;28;20434;-78
2021/04/04 05:29:03;;;;;;;14.82;4.65;;;4.70;65.10;;;3.48;55.51;98993.09;4994293;28;20820;-78
2021/04/04 05:31:30;;;;;;;11.57;4.63;;;4.70;64.80;;;3.49;55.34;98991.31;4993176;28;20410;-78
2021/04/04 05:33:57;;;;;;;14.82;4.70;;;4.70;64.70;;;3.55;55.51;99002.91;4993142;28;20471;-78
2021/04/04 05:36:23;;;;;;;13.88;4.63;;;4.70;64.80;;;3.61;55.56;98997.81;4992688;28;20472;-78
2021/04/04 05:38:56;;;;;;;11.18;4.70;;;4.80;64.70;;;3.61;55.45;99004.88;4994287;28;20441;-79
2021/04/04 05:41:24;;;;;;;11.23;4.82;;;4.80;64.70;;;3.65;55.27;99006.16;4975958;28;20437;-79
2021/04/04 05:43:58;;;;;;;14.52;4.45;;;4.80;64.70;;;3.79;55.00;99006.28;4994255;28;20727;-78
2021/04/04 05:46:30;;;;;;;11.73;4.70;;;4.90;64.60;;;3.77;55.10;99008.25;4994782;28;20434;-78
2021/04/04 05:49:02;;;;;;;12.55;4.50;;;5.00;64.60;;;3.84;55.10;99011.00;4995976;28;20415;-79
2021/04/04 05:51:42;;;;;;;14.43;4.80;;;5.00;64.60;;;3.89;55.16;99004.31;4993670;28;20446;-78
2021/04/04 05:54:31;;;;;;;13.43;4.90;;;5.00;64.60;;;3.91;55.30;99003.31;4978095;28;20411;-78
2021/04/04 05:57:04;;;;;;;11.27;4.90;;;5.10;64.80;;;3.84;55.57;98996.13;4976690;28;20484;-79
2021/04/04 05:59:40;;;;;;;19.17;6.35;;;5.00;64.50;;;3.77;55.94;98994.34;4996740;28;20437;-78
2021/04/04 06:03:31;;;;;;;13.30;6.32;;;4.90;65.20;;;3.77;57.06;99007.44;4993852;28;20431;-78
2021/04/04 06:06:33;;;;;;;18.33;7.30;;;4.90;66.10;;;3.68;57.40;98995.38;4993142;28;20525;-78
2021/04/04 06:09:24;;;;;;;19.63;8.40;;;4.80;67.30;;;3.58;58.27;99006.03;4993490;28;20418;-78
2021/04/04 06:12:14;;;;;;;18.80;8.13;;;4.80;68.00;;;3.62;58.47;99001.25;4993094;28;20433;-78
2021/04/04 06:15:00;;;;;;;17.73;9.13;;;4.80;68.40;;;3.73;58.28;99014.00;4993367;28;20464;-78
2021/04/04 06:17:35;;;;;;;21.85;8.50;;;4.80;68.60;;;3.84;57.97;99005.78;4994242;28;20422;-87
2021/04/04 06:20:31;;;;;;;20.23;9.27;;;4.90;68.40;;;4.08;57.22;99002.25;4997764;28;20673;-88
2021/04/04 06:23:10;;;;;;;25.02;8.70;;;5.20;67.60;;;4.27;56.75;98997.44;4997234;28;20442;-88
2021/04/04 06:25:47;;;;;;;18.77;8.23;;;5.40;66.80;;;4.22;56.50;98996.31;5001665;28;20514;-88
2021/04/04 06:28:30;;;;;;;15.37;8.53;;;5.40;66.10;;;4.34;56.27;98991.50;4990393;28;20427;-88
2021/04/04 06:31:08;;;;;;;19.52;7.60;;;5.40;66.00;;;4.43;55.79;98987.88;4982592;28;20504;-88
2021/04/04 06:33:40;;;;;;;18.98;8.23;;;5.50;65.50;;;4.62;55.12;99000.53;5000086;28;20410;-86
2021/04/04 06:36:22;;;;;;;18.77;8.45;;;5.70;65.00;;;4.88;54.57;98992.31;4985453;28;20438;-88
2021/04/04 06:39:11;;;;;;;18.02;7.70;;;5.90;64.30;;;5.21;53.25;98985.81;5005299;28;20461;-87
2021/04/04 06:41:52;;;;;;;18.52;7.82;;;6.20;63.20;;;5.31;52.73;98993.44;4999385;28;20429;-87
2021/04/04 06:44:32;;;;;;;14.57;7.18;;;6.30;62.20;;;5.37;52.48;98980.41;4999541;28;20443;-87
2021/04/04 06:47:03;;;;;;;15.13;7.20;;;6.50;61.60;;;5.27;52.35;98985.09;4999827;28;20445;-87
2021/04/04 06:49:49;;;;;;;17.67;7.25;;;6.40;61.30;;;5.16;52.55;98988.16;4999511;28;20796;-86
2021/04/04 06:52:39;;;;;;;17.10;7.20;;;6.30;61.30;;;5.12;52.81;98991.28;4999587;28;20414;-87
2021/04/04 06:55:11;;;;;;;16.60;7.57;;;6.20;61.70;;;5.12;52.67;98996.53;5001023;28;20793;-86
2021/04/04 06:57:58;;;;;;;15.93;6.43;;;6.20;61.70;;;5.21;52.45;98993.69;5003374;28;20854;-84
2021/04/04 07:00:31;;;;;;;18.70;7.28;;;6.30;61.60;;;5.40;52.15;99000.25;4990620;28;20422;-85
2021/04/04 07:03:07;;;;;;;16.42;6.85;;;6.40;61.30;;;5.24;52.10;98995.97;5003638;28;20422;-87
2021/04/04 07:05:39;;;;;;;16.08;7.40;;;6.40;61.00;;;5.28;52.26;98996.41;4999699;28;20440;-86
2021/04/04 07:08:41;;;;;;;16.17;7.70;;;6.40;61.20;;;5.33;52.31;99002.78;5001912;28;20422;-86
2021/04/04 07:11:32;;;;;;;16.83;7.90;;;6.40;61.20;;;5.50;52.12;99003.44;4999568;28;20454;-86
2021/04/04 07:14:29;;;;;;;17.87;7.37;;;6.50;61.10;;;5.58;51.71;98998.09;5003385;28;20415;-85
2021/04/04 07:17:27;;;;;;;13.80;7.20;;;6.60;60.40;;;5.74;51.55;98992.69;5018554;28;20609;-87
2021/04/04 07:20:22;;;;;;;17.17;7.15;;;6.80;60.00;;;5.93;50.82;98995.81;4994354;28;20410;-88
2021/04/04 07:23:44;;;;;;;17.20;7.88;;;7.00;59.70;;;5.95;51.04;98997.25;5006597;28;20846;-89
2021/04/04 07:26:36;;;;;;;21.42;8.30;;;7.10;59.40;;;5.95;51.13;98991.16;4999694;28;20434;-80
2021/04/04 07:29:24;;;;;;;17.05;7.15;;;7.00;59.60;;;6.12;51.04;98995.25;5003034;28;20413;-87
2021/04/04 07:32:01;;;;;;;17.13;7.90;;;7.10;59.90;;;6.25;50.68;98984.06;4999461;28;20438;-86
2021/04/04 07:34:45;;;;;;;14.60;7.40;;;7.20;59.60;;;6.44;50.52;98994.84;4999497;28;20764;-90
2021/04/04 07:37:27;;;;;;;15.35;7.47;;;7.40;59.40;;;6.36;49.98;98991.50;4998937;28;20578;-90
2021/04/04 07:40:37;;;;;;;19.95;8.02;;;7.40;58.70;;;6.41;50.34;98986.47;4999585;28;20511;-89
2021/04/04 07:43:06;;;;;;;15.00;7.18;;;7.40;59.00;;;6.48;49.79;98998.72;4981721;28;20757;-92
2021/04/04 07:45:39;;;;;;;22.15;7.97;;;7.50;58.30;;;6.52;49.36;98993.91;5000677;28;20455;-89
2021/04/04 07:48:22;;;;;;;14.83;7.33;;;7.50;57.90;;;6.55;49.91;98994.34;5006979;28;20415;-88
2021/04/04 07:51:01;;;;;;;18.70;7.53;;;7.60;58.50;;;6.58;49.16;98993.97;5003352;28;20476;-88
2021/04/04 07:53:38;;;;;;;17.27;7.80;;;7.60;57.80;;;6.67;49.13;98996.50;5001891;28;20414;-86
2021/04/04 07:56:16;;;;;;;16.92;7.15;;;7.70;57.80;;;6.74;48.74;98997.38;4983026;28;20427;-86
2021/04/04 07:58:53;;;;;;;21.52;6.95;;;7.70;57.30;;;6.82;48.63;98992.81;5000529;28;20476;-86
2021/04/04 08:01:24;;;;;;;17.63;7.65;;;7.80;57.10;;;6.93;48.27;98996.75;5000180;28;20491;-86
2021/04/04 08:03:59;;;;;;;16.73;6.95;;;7.90;57.00;;;7.07;47.82;98990.59;4999719;28;20407;-86
2021/04/04 08:06:35;;;;;;;18.48;6.93;;;8.10;56.60;;;7.05;47.17;98991.81;4998863;28;20502;-87
2021/04/04 08:09:06;;;;;;;14.77;7.03;;;8.10;55.70;;;7.13;47.72;98994.31;4999053;28;20494;-86
2021/04/04 08:11:47;;;;;;;14.63;7.32;;;8.10;56.30;;;7.35;47.20;98993.28;4997522;28;20732;-87
2021/04/04 08:14:19;;;;;;;15.77;6.63;;;8.40;55.90;;;7.22;47.38;98987.88;4999419;28;20716;-87
2021/04/04 08:16:51;;;;;;;18.25;7.35;;;8.20;55.70;;;7.53;47.01;98996.25;4982424;28;20492;-88
2021/04/04 08:19:18;;;;;;;16.58;7.15;;;8.40;55.90;;;7.69;46.73;99000.41;4999143;28;20418;-86
2021/04/04 08:21:49;;;;;;;16.85;6.68;;;8.60;55.40;;;7.60;46.48;99001.56;5001293;28;20489;-88
2021/04/04 08:24:27;;;;;;;17.30;7.27;;;8.60;55.00;;;7.60;46.68;98993.66;5001112;28;20423;-87
2021/04/04 08:27:02;;;;;;;18.60;7.07;;;8.60;55.10;;;7.59;46.77;98989.41;4999439;28;20504;-89
2021/04/04 08:29:39;;;;;;;19.33;7.20;;;8.60;55.10;;;7.67;46.59;98989.22;4983551;28;20419;-89
2021/04/04 08:32:09;;;;;;;18.15;7.25;;;8.60;55.10;;;7.78;46.54;98988.72;4999740;28;20424;-87
2021/04/04 08:34:40;;;;;;;17.80;7.40;;;8.70;55.00;;;7.98;45.95;98992.25;4999249;28;20440;-89
2021/04/04 08:37:18;;;;;;;17.38;7.18;;;8.90;54.60;;;8.05;45.46;98985.19;4980036;28;20430;-88
2021/04/04 08:39:54;;;;;;;19.83;6.82;;;9.00;54.10;;;8.33;45.05;98981.72;4999973;28;20487;-88
2021/04/04 08:42:20;;;;;;;15.45;6.68;;;9.20;54.40;;;8.61;44.26;98978.97;5001687;28;20419;-88
2021/04/04 08:44:57;;;;;;;17.15;6.68;;;9.40;53.00;;;8.36;44.65;98987.41;4983974;28;20517;-88
2021/04/04 08:47:28;;;;;;;21.60;7.20;;;9.40;52.30;;;8.10;44.93;98984.63;5002575;28;20667;-87
2021/04/04 08:49:57;;;;;;;12.50;6.47;;;9.20;52.80;;;8.11;45.16;98989.72;5005008;28;20655;-88
2021/04/04 08:52:32;;;;;;;16.50;6.97;;;9.10;53.30;;;8.34;44.63;98980.72;5006817;28;20478;-87
2021/04/04 08:54:58;;;;;;;12.32;6.00;;;9.20;53.40;;;8.61;44.06;98986.88;4996002;28;20414;-86
2021/04/04 08:57:30;;;;;;;18.47;7.27;;;9.50;52.80;;;8.68;43.89;98987.69;5008342;28;20403;-86
2021/04/04 08:59:56;;;;;;;14.82;6.18;;;9.60;52.10;;;8.76;43.61;98983.06;4989815;28;20443;-87
2021/04/04 09:02:27;;;;;;;18.98;7.47;;;9.70;51.80;;;8.88;43.26;98981.44;5000109;28;20448;-89
2021/04/04 09:05:02;;;;;;;14.50;6.97;;;9.80;51.40;;;8.92;43.36;98981.88;4999790;28;20407;-87
2021/04/04 09:07:34;;;;;;;17.33;6.55;;;9.90;51.20;;;8.89;42.89;98979.63;4999558;28;20508;-87
2021/04/04 09:10:05;;;;;;;12.35;6.78;;;9.90;51.00;;;8.93;42.96;98984.31;4982917;28;20497;-88
2021/04/04 09:12:32;;;;;;;13.30;6.28;;;9.90;51.10;;;8.86;42.35;98978.22;4998330;28;20418;-86
2021/04/04 09:15:04;;;;;;;12.85;6.63;;;9.80;50.20;;;8.87;42.63;98976.38;4982734;28;20433;-87
2021/04/04 09:17:31;;;;;;;15.40;6.83;;;9.80;50.50;;;9.04;42.01;98977.59;5001793;28;20449;-87
2021/04/04 09:20:00;;;;;;;12.80;5.97;;;10.00;50.30;;;8.93;41.45;98976.38;5004697;28;20418;-86
2021/04/04 09:22:29;;;;;;;13.57;6.03;;;9.90;49.20;;;8.92;41.76;98981.88;4985298;28;20484;-86
2021/04/04 09:24:59;;;;;;;15.13;5.65;;;9.80;49.40;;;9.21;40.66;98972.75;4982892;28;20421;-85
2021/04/04 09:27:28;;;;;;;13.07;5.80;;;10.10;48.80;;;9.30;40.10;98969.69;5005622;28;20441;-86
2021/04/04 09:29:57;;;;;;;14.88;5.38;;;10.20;48.10;;;9.40;40.03;98969.28;4988322;28;20813;-87
2021/04/04 09:32:33;;;;;;;9.07;4.75;;;10.30;47.40;;;9.49;39.56;98967.22;4999005;28;20501;-87
2021/04/04 09:35:00;;;;;;;8.40;4.60;;;10.40;47.00;;;9.37;38.32;98964.41;4997396;28;20734;-85
2021/04/04 09:37:29;;;;;;;12.10;4.75;;;10.30;45.30;;;9.55;38.58;98956.66;4998536;28;20816;-88
2021/04/04 09:39:56;;;;;;;11.30;5.22;;;10.40;46.10;;;9.64;38.83;98970.47;4999404;28;20848;-88
2021/04/04 09:42:23;;;;;;;9.23;4.67;;;10.50;46.30;;;9.48;38.18;98973.53;4997735;28;20566;-88
2021/04/04 09:44:49;;;;;;;14.75;5.13;;;10.40;45.10;;;9.41;38.30;98970.09;4997920;28;20800;-88
2021/04/04 09:47:17;;;;;;;6.53;3.42;;;10.40;45.50;;;9.49;35.98;98960.13;4997919;28;20536;-88
2021/04/04 09:49:46;;;;;;;7.68;3.70;;;10.40;42.90;;;9.84;35.61;98958.03;4980412;28;20450;-88
2021/04/04 09:52:32;;;;;;;8.57;3.80;;;10.70;42.80;;;10.11;35.65;98958.75;4996977;28;20832;-88
2021/04/04 09:55:05;;;;;;;10.73;3.33;;;11.00;43.00;;;10.21;34.60;98951.22;4997721;28;20466;-88
2021/04/04 09:57:39;;;;;;;8.45;3.40;;;11.10;41.40;;;10.09;33.86;98958.13;4980468;28;20625;-88
2021/04/04 10:00:24;;;;;;;7.50;4.07;;;11.00;40.10;;;9.84;34.66;98951.94;4997923;28;20466;-89
2021/04/04 10:02:51;;;;;;;11.75;4.85;;;10.80;41.10;;;9.86;35.34;98953.34;4999244;28;20445;-89
2021/04/04 10:05:34;;;;;;;11.43;3.75;;;10.70;42.30;;;10.17;34.70;98942.06;5002439;28;20418;-88
2021/04/04 10:08:16;;;;;;;13.73;4.00;;;11.00;41.60;;;10.39;34.32;98942.56;5001831;28;20486;-86
2021/04/04 10:10:46;;;;;;;6.85;3.25;;;11.30;41.10;;;10.57;32.21;98944.53;5009662;28;20414;-86
2021/04/04 10:13:12;;;;;;;9.32;3.58;;;11.40;39.00;;;10.81;32.16;98935.81;5011146;28;20422;-88
2021/04/04 10:15:45;;;;;;;10.65;4.13;;;11.70;38.60;;;10.37;33.28;98936.69;5001716;28;20418;-87
2021/04/04 10:18:13;;;;;;;7.45;3.70;;;11.40;39.20;;;10.68;33.14;98943.81;4998388;28;20414;-89
2021/04/04 10:20:44;;;;;;;14.38;4.55;;;11.50;39.60;;;10.26;34.63;98932.06;4999259;28;20445;-89
2021/04/04 10:23:10;;;;;;;8.25;4.32;;;11.20;40.60;;;10.58;34.01;98938.22;4980733;28;20476;-87
2021/04/04 10:25:54;;;;;;;9.40;3.90;;;11.30;40.80;;;10.71;33.48;98930.19;4979959;28;20473;-87
2021/04/04 10:28:20;;;;;;;8.75;3.53;;;11.60;40.00;;;10.87;31.43;98924.34;4998223;28;20495;-88
2021/04/04 10:30:55;;;;;;;7.72;3.85;;;11.80;37.10;;;11.11;31.65;98920.91;4979306;28;20425;-88
2021/04/04 10:33:24;;;;;;;10.13;3.40;;;12.00;37.70;;;11.37;30.67;98914.56;4979350;28;20837;-87
2021/04/04 10:35:52;;;;;;;8.38;3.90;;;12.10;37.00;;;11.34;31.44;98915.00;4998069;28;20407;-87
2021/04/04 10:38:21;;;;;;;8.55;4.00;;;12.30;37.30;;;11.35;32.05;98907.88;4998299;28;20452;-89
2021/04/04 10:40:52;;;;;;;9.68;4.28;;;12.10;38.30;;;11.20;32.42;98910.84;4998968;28;20452;-86
2021/04/04 10:43:21;;;;;;;8.88;4.28;;;12.10;38.40;;;10.94;32.94;98906.56;5000359;28;20411;-89
2021/04/04 10:46:04;;;;;;;9.40;4.10;;;11.90;38.80;;;11.05;32.12;98907.72;4996155;28;20448;-88
2021/04/04 10:48:33;;;;;;;14.90;4.57;;;12.00;38.20;;;10.82;32.76;98903.81;4979899;28;20480;-88